sensor_id;sensor_type;location;lat;lon;timestamp;temperature;humidity
4584;DHT22;2304;47.606;12.186;2022-09-06T00:01:24;19.30;74.50
4584;DHT22;2304;47.606;12.186;2022-09-06T00:06:28;19.30;74.70
4584;DHT22;2304;47.606;12.186;2022-09-06T00:11:29;19.20;74.80
4584;DHT22;2304;47.606;12.186;2022-09-06T00:16:31;19.10;75.30
4584;DHT22;2304;47.606;12.186;2022-09-06T00:21:35;19.10;76.10
4584;DHT22;2304;47.606;12.186;2022-09-06T00:26:37;19.10;76.00
4584;DHT22;2304;47.606;12.186;2022-09-06T00:31:39;19.00;76.10
4584;DHT22;2304;47.606;12.186;2022-09-06T00:36:42;19.00;76.00
4584;DHT22;2304;47.606;12.186;2022-09-06T00:41:44;19.00;76.70
4584;DHT22;2304;47.606;12.186;2022-09-06T00:46:48;19.00;75.60
4584;DHT22;2304;47.606;12.186;2022-09-06T00:51:55;19.00;75.20
4584;DHT22;2304;47.606;12.186;2022-09-06T00:56:58;18.90;75.40
4584;DHT22;2304;47.606;12.186;2022-09-06T01:02:01;18.90;75.40
4584;DHT22;2304;47.606;12.186;2022-09-06T01:07:15;18.90;75.00
4584;DHT22;2304;47.606;12.186;2022-09-06T01:12:33;18.80;74.90
4584;DHT22;2304;47.606;12.186;2022-09-06T01:17:47;18.80;75.30
4584;DHT22;2304;47.606;12.186;2022-09-06T01:23:25;18.70;75.40
4584;DHT22;2304;47.606;12.186;2022-09-06T01:28:32;18.70;74.80
4584;DHT22;2304;47.606;12.186;2022-09-06T01:33:40;18.70;75.10
4584;DHT22;2304;47.606;12.186;2022-09-06T01:38:45;18.70;75.10
4584;DHT22;2304;47.606;12.186;2022-09-06T01:43:50;18.70;75.20
4584;DHT22;2304;47.606;12.186;2022-09-06T01:49:02;18.60;75.40
4584;DHT22;2304;47.606;12.186;2022-09-06T01:54:23;18.50;76.40
4584;DHT22;2304;47.606;12.186;2022-09-06T01:59:39;18.50;75.30
4584;DHT22;2304;47.606;12.186;2022-09-06T02:04:45;18.50;74.90
4584;DHT22;2304;47.606;12.186;2022-09-06T02:09:57;18.40;75.10
4584;DHT22;2304;47.606;12.186;2022-09-06T02:15:04;18.40;75.00
4584;DHT22;2304;47.606;12.186;2022-09-06T02:20:09;18.40;74.90
4584;DHT22;2304;47.606;12.186;2022-09-06T02:25:18;18.30;75.00
4584;DHT22;2304;47.606;12.186;2022-09-06T02:30:22;18.20;75.10
4584;DHT22;2304;47.606;12.186;2022-09-06T02:35:25;18.20;75.30
4584;DHT22;2304;47.606;12.186;2022-09-06T02:40:27;18.20;75.00
4584;DHT22;2304;47.606;12.186;2022-09-06T02:45:30;18.20;75.30
4584;DHT22;2304;47.606;12.186;2022-09-06T02:50:32;18.20;74.90
4584;DHT22;2304;47.606;12.186;2022-09-06T02:55:34;18.20;75.20
4584;DHT22;2304;47.606;12.186;2022-09-06T03:00:38;18.10;74.80
4584;DHT22;2304;47.606;12.186;2022-09-06T03:05:40;18.10;74.90
4584;DHT22;2304;47.606;12.186;2022-09-06T03:10:47;18.00;75.70
4584;DHT22;2304;47.606;12.186;2022-09-06T03:15:51;18.00;76.50
4584;DHT22;2304;47.606;12.186;2022-09-06T03:20:54;18.00;76.20
4584;DHT22;2304;47.606;12.186;2022-09-06T03:25:56;18.00;76.00
4584;DHT22;2304;47.606;12.186;2022-09-06T03:30:59;18.00;76.50
4584;DHT22;2304;47.606;12.186;2022-09-06T03:36:01;18.00;76.40
4584;DHT22;2304;47.606;12.186;2022-09-06T03:41:03;18.00;76.60
4584;DHT22;2304;47.606;12.186;2022-09-06T03:46:07;18.00;76.70
4584;DHT22;2304;47.606;12.186;2022-09-06T03:51:09;17.90;76.50
4584;DHT22;2304;47.606;12.186;2022-09-06T03:56:10;17.90;77.00
4584;DHT22;2304;47.606;12.186;2022-09-06T04:01:14;17.90;77.80
4584;DHT22;2304;47.606;12.186;2022-09-06T04:06:16;17.80;78.40
4584;DHT22;2304;47.606;12.186;2022-09-06T04:11:18;17.90;78.00
4584;DHT22;2304;47.606;12.186;2022-09-06T04:16:21;18.20;78.00
4584;DHT22;2304;47.606;12.186;2022-09-06T04:21:23;18.00;76.90
4584;DHT22;2304;47.606;12.186;2022-09-06T04:26:25;18.00;76.00
4584;DHT22;2304;47.606;12.186;2022-09-06T04:31:28;17.90;75.90
4584;DHT22;2304;47.606;12.186;2022-09-06T04:36:30;17.90;76.00
4584;DHT22;2304;47.606;12.186;2022-09-06T04:41:31;17.90;76.30
4584;DHT22;2304;47.606;12.186;2022-09-06T04:46:35;17.90;76.40
4584;DHT22;2304;47.606;12.186;2022-09-06T04:51:37;17.80;76.70
4584;DHT22;2304;47.606;12.186;2022-09-06T04:56:39;17.80;76.50
4584;DHT22;2304;47.606;12.186;2022-09-06T05:01:42;17.80;76.50
4584;DHT22;2304;47.606;12.186;2022-09-06T05:06:44;17.80;76.80
4584;DHT22;2304;47.606;12.186;2022-09-06T05:11:46;17.80;76.40
4584;DHT22;2304;47.606;12.186;2022-09-06T05:16:49;17.90;76.90
4584;DHT22;2304;47.606;12.186;2022-09-06T05:21:51;17.90;76.50
4584;DHT22;2304;47.606;12.186;2022-09-06T05:26:53;18.00;76.50
4584;DHT22;2304;47.606;12.186;2022-09-06T05:31:56;17.90;75.70
4584;DHT22;2304;47.606;12.186;2022-09-06T05:36:58;18.00;74.90
4584;DHT22;2304;47.606;12.186;2022-09-06T05:42:00;18.00;77.00
4584;DHT22;2304;47.606;12.186;2022-09-06T05:47:07;18.10;76.80
4584;DHT22;2304;47.606;12.186;2022-09-06T05:52:09;18.20;79.70
4584;DHT22;2304;47.606;12.186;2022-09-06T05:57:11;18.20;77.80
4584;DHT22;2304;47.606;12.186;2022-09-06T06:02:14;18.20;77.90
4584;DHT22;2304;47.606;12.186;2022-09-06T06:07:16;18.20;77.90
4584;DHT22;2304;47.606;12.186;2022-09-06T06:12:18;18.20;78.90
4584;DHT22;2304;47.606;12.186;2022-09-06T06:17:21;18.20;76.90
4584;DHT22;2304;47.606;12.186;2022-09-06T06:22:24;18.20;74.30
4584;DHT22;2304;47.606;12.186;2022-09-06T06:27:25;18.00;76.00
4584;DHT22;2304;47.606;12.186;2022-09-06T06:32:29;18.20;77.90
4584;DHT22;2304;47.606;12.186;2022-09-06T06:37:31;18.00;79.70
4584;DHT22;2304;47.606;12.186;2022-09-06T06:42:33;18.00;81.40
4584;DHT22;2304;47.606;12.186;2022-09-06T06:47:36;18.00;82.70
4584;DHT22;2304;47.606;12.186;2022-09-06T06:52:38;17.70;82.80
4584;DHT22;2304;47.606;12.186;2022-09-06T06:57:40;17.80;83.10
4584;DHT22;2304;47.606;12.186;2022-09-06T07:02:44;17.80;84.90
4584;DHT22;2304;47.606;12.186;2022-09-06T07:07:45;17.70;84.90
4584;DHT22;2304;47.606;12.186;2022-09-06T07:12:47;17.60;85.60
4584;DHT22;2304;47.606;12.186;2022-09-06T07:17:53;17.60;86.40
4584;DHT22;2304;47.606;12.186;2022-09-06T07:22:59;17.60;86.80
4584;DHT22;2304;47.606;12.186;2022-09-06T07:28:03;17.60;87.00
4584;DHT22;2304;47.606;12.186;2022-09-06T07:33:07;17.60;88.50
4584;DHT22;2304;47.606;12.186;2022-09-06T07:38:09;17.60;89.30
4584;DHT22;2304;47.606;12.186;2022-09-06T07:43:11;17.70;88.40
4584;DHT22;2304;47.606;12.186;2022-09-06T07:48:14;17.70;88.50
4584;DHT22;2304;47.606;12.186;2022-09-06T07:53:16;17.70;89.30
4584;DHT22;2304;47.606;12.186;2022-09-06T07:58:18;17.80;90.10
4584;DHT22;2304;47.606;12.186;2022-09-06T08:03:21;17.90;89.60
4584;DHT22;2304;47.606;12.186;2022-09-06T08:08:23;17.90;88.80
4584;DHT22;2304;47.606;12.186;2022-09-06T08:13:25;18.00;89.30
4584;DHT22;2304;47.606;12.186;2022-09-06T08:18:29;18.10;89.00
4584;DHT22;2304;47.606;12.186;2022-09-06T08:23:31;18.30;88.90
4584;DHT22;2304;47.606;12.186;2022-09-06T08:28:32;18.40;88.30
4584;DHT22;2304;47.606;12.186;2022-09-06T08:33:36;18.60;87.60
4584;DHT22;2304;47.606;12.186;2022-09-06T08:38:38;18.70;86.10
4584;DHT22;2304;47.606;12.186;2022-09-06T08:43:48;18.90;85.60
4584;DHT22;2304;47.606;12.186;2022-09-06T08:48:54;19.10;86.40
4584;DHT22;2304;47.606;12.186;2022-09-06T08:53:59;19.20;84.00
4584;DHT22;2304;47.606;12.186;2022-09-06T08:59:06;19.30;84.40
4584;DHT22;2304;47.606;12.186;2022-09-06T09:04:15;19.30;82.40
4584;DHT22;2304;47.606;12.186;2022-09-06T09:09:18;19.30;82.90
4584;DHT22;2304;47.606;12.186;2022-09-06T09:14:24;19.40;81.60
4584;DHT22;2304;47.606;12.186;2022-09-06T09:19:29;19.40;79.90
4584;DHT22;2304;47.606;12.186;2022-09-06T09:24:36;19.50;80.80
4584;DHT22;2304;47.606;12.186;2022-09-06T09:29:56;19.50;81.40
4584;DHT22;2304;47.606;12.186;2022-09-06T09:35:26;19.60;80.30
4584;DHT22;2304;47.606;12.186;2022-09-06T09:40:33;19.60;79.50
4584;DHT22;2304;47.606;12.186;2022-09-06T09:45:37;19.60;80.20
4584;DHT22;2304;47.606;12.186;2022-09-06T09:50:41;19.90;81.60
4584;DHT22;2304;47.606;12.186;2022-09-06T09:55:43;20.30;81.80
4584;DHT22;2304;47.606;12.186;2022-09-06T10:00:45;20.50;76.00
4584;DHT22;2304;47.606;12.186;2022-09-06T10:05:56;20.70;75.80
4584;DHT22;2304;47.606;12.186;2022-09-06T10:11:00;20.80;73.50
4584;DHT22;2304;47.606;12.186;2022-09-06T10:16:02;20.90;74.00
4584;DHT22;2304;47.606;12.186;2022-09-06T10:21:08;21.10;75.70
4584;DHT22;2304;47.606;12.186;2022-09-06T10:26:17;21.20;73.40
4584;DHT22;2304;47.606;12.186;2022-09-06T10:32:01;21.20;72.50
4584;DHT22;2304;47.606;12.186;2022-09-06T10:37:15;21.20;69.80
4584;DHT22;2304;47.606;12.186;2022-09-06T10:42:28;21.10;68.80
4584;DHT22;2304;47.606;12.186;2022-09-06T10:47:36;21.00;68.60
4584;DHT22;2304;47.606;12.186;2022-09-06T10:52:43;21.10;71.20
4584;DHT22;2304;47.606;12.186;2022-09-06T10:57:50;21.10;70.40
4584;DHT22;2304;47.606;12.186;2022-09-06T11:03:00;21.30;71.90
4584;DHT22;2304;47.606;12.186;2022-09-06T11:08:09;21.80;69.50
4584;DHT22;2304;47.606;12.186;2022-09-06T11:13:15;22.50;69.80
4584;DHT22;2304;47.606;12.186;2022-09-06T11:18:21;22.90;65.10
4584;DHT22;2304;47.606;12.186;2022-09-06T11:23:46;23.30;64.20
4584;DHT22;2304;47.606;12.186;2022-09-06T11:28:52;23.30;63.10
4584;DHT22;2304;47.606;12.186;2022-09-06T11:34:03;23.10;63.60
4584;DHT22;2304;47.606;12.186;2022-09-06T11:39:08;23.00;63.00
4584;DHT22;2304;47.606;12.186;2022-09-06T11:44:10;23.10;64.90
4584;DHT22;2304;47.606;12.186;2022-09-06T11:49:36;23.50;65.00
4584;DHT22;2304;47.606;12.186;2022-09-06T11:54:44;24.00;63.70
4584;DHT22;2304;47.606;12.186;2022-09-06T11:59:57;24.30;62.70
4584;DHT22;2304;47.606;12.186;2022-09-06T12:05:11;24.20;59.70
4584;DHT22;2304;47.606;12.186;2022-09-06T12:10:45;24.80;61.10
4584;DHT22;2304;47.606;12.186;2022-09-06T12:15:52;25.20;61.10
4584;DHT22;2304;47.606;12.186;2022-09-06T12:21:04;25.60;58.30
4584;DHT22;2304;47.606;12.186;2022-09-06T12:26:08;25.80;59.50
4584;DHT22;2304;47.606;12.186;2022-09-06T12:31:33;25.80;55.30
4584;DHT22;2304;47.606;12.186;2022-09-06T12:36:47;25.80;58.30
4584;DHT22;2304;47.606;12.186;2022-09-06T12:41:54;26.00;56.80
4584;DHT22;2304;47.606;12.186;2022-09-06T12:47:02;26.30;56.00
4584;DHT22;2304;47.606;12.186;2022-09-06T12:52:08;26.50;55.10
4584;DHT22;2304;47.606;12.186;2022-09-06T12:57:16;26.50;54.60
4584;DHT22;2304;47.606;12.186;2022-09-06T13:02:24;26.60;53.70
4584;DHT22;2304;47.606;12.186;2022-09-06T13:07:28;26.60;56.20
4584;DHT22;2304;47.606;12.186;2022-09-06T13:12:33;26.70;58.60
4584;DHT22;2304;47.606;12.186;2022-09-06T13:17:35;26.80;58.00
4584;DHT22;2304;47.606;12.186;2022-09-06T13:22:41;26.80;57.60
4584;DHT22;2304;47.606;12.186;2022-09-06T13:27:45;26.90;57.20
4584;DHT22;2304;47.606;12.186;2022-09-06T13:32:50;27.00;54.20
4584;DHT22;2304;47.606;12.186;2022-09-06T13:37:51;27.00;53.30
4584;DHT22;2304;47.606;12.186;2022-09-06T13:43:00;27.10;54.30
4584;DHT22;2304;47.606;12.186;2022-09-06T13:48:02;27.20;55.20
4584;DHT22;2304;47.606;12.186;2022-09-06T13:53:03;27.30;57.10
4584;DHT22;2304;47.606;12.186;2022-09-06T13:58:07;27.50;59.30
4584;DHT22;2304;47.606;12.186;2022-09-06T14:03:11;27.50;57.20
4584;DHT22;2304;47.606;12.186;2022-09-06T14:08:14;27.60;56.40
4584;DHT22;2304;47.606;12.186;2022-09-06T14:13:18;27.70;56.00
4584;DHT22;2304;47.606;12.186;2022-09-06T14:18:20;27.80;56.40
4584;DHT22;2304;47.606;12.186;2022-09-06T14:23:22;27.90;54.00
4584;DHT22;2304;47.606;12.186;2022-09-06T14:28:26;28.00;53.90
4584;DHT22;2304;47.606;12.186;2022-09-06T14:33:30;28.10;53.30
4584;DHT22;2304;47.606;12.186;2022-09-06T14:38:34;28.20;51.60
4584;DHT22;2304;47.606;12.186;2022-09-06T14:43:38;28.20;51.30
4584;DHT22;2304;47.606;12.186;2022-09-06T14:48:40;28.00;52.10
4584;DHT22;2304;47.606;12.186;2022-09-06T14:53:43;27.60;52.10
4584;DHT22;2304;47.606;12.186;2022-09-06T14:58:46;27.30;52.30
4584;DHT22;2304;47.606;12.186;2022-09-06T15:03:50;27.10;53.60
4584;DHT22;2304;47.606;12.186;2022-09-06T15:08:53;27.10;55.40
4584;DHT22;2304;47.606;12.186;2022-09-06T15:13:56;26.90;55.20
4584;DHT22;2304;47.606;12.186;2022-09-06T15:18:58;26.90;55.80
4584;DHT22;2304;47.606;12.186;2022-09-06T15:24:02;26.80;56.60
4584;DHT22;2304;47.606;12.186;2022-09-06T15:29:06;26.60;57.40
4584;DHT22;2304;47.606;12.186;2022-09-06T15:34:09;26.50;56.70
4584;DHT22;2304;47.606;12.186;2022-09-06T15:39:11;26.40;55.60
4584;DHT22;2304;47.606;12.186;2022-09-06T15:44:16;26.50;56.00
4584;DHT22;2304;47.606;12.186;2022-09-06T15:49:20;26.50;57.00
4584;DHT22;2304;47.606;12.186;2022-09-06T15:54:23;26.50;58.30
4584;DHT22;2304;47.606;12.186;2022-09-06T15:59:47;26.50;59.10
4584;DHT22;2304;47.606;12.186;2022-09-06T16:04:48;26.40;59.70
4584;DHT22;2304;47.606;12.186;2022-09-06T16:09:50;26.20;60.10
4584;DHT22;2304;47.606;12.186;2022-09-06T16:14:54;26.00;60.70
4584;DHT22;2304;47.606;12.186;2022-09-06T16:19:56;25.90;60.20
4584;DHT22;2304;47.606;12.186;2022-09-06T16:24:58;25.90;60.30
4584;DHT22;2304;47.606;12.186;2022-09-06T16:30:02;25.80;61.60
4584;DHT22;2304;47.606;12.186;2022-09-06T16:35:04;25.70;61.40
4584;DHT22;2304;47.606;12.186;2022-09-06T16:40:08;25.50;62.60
4584;DHT22;2304;47.606;12.186;2022-09-06T16:45:11;25.40;63.30
4584;DHT22;2304;47.606;12.186;2022-09-06T16:50:13;25.40;63.50
4584;DHT22;2304;47.606;12.186;2022-09-06T16:55:15;25.20;65.30
4584;DHT22;2304;47.606;12.186;2022-09-06T17:00:19;25.10;64.80
4584;DHT22;2304;47.606;12.186;2022-09-06T17:05:21;25.00;65.20
4584;DHT22;2304;47.606;12.186;2022-09-06T17:10:23;24.90;65.30
4584;DHT22;2304;47.606;12.186;2022-09-06T17:15:26;24.80;65.90
4584;DHT22;2304;47.606;12.186;2022-09-06T17:20:54;24.70;66.10
4584;DHT22;2304;47.606;12.186;2022-09-06T17:25:57;24.50;67.50
4584;DHT22;2304;47.606;12.186;2022-09-06T17:31:00;24.30;68.10
4584;DHT22;2304;47.606;12.186;2022-09-06T17:36:07;24.20;68.50
4584;DHT22;2304;47.606;12.186;2022-09-06T17:41:17;24.00;67.60
4584;DHT22;2304;47.606;12.186;2022-09-06T17:46:22;23.90;67.70
4584;DHT22;2304;47.606;12.186;2022-09-06T17:51:24;23.80;67.90
4584;DHT22;2304;47.606;12.186;2022-09-06T17:56:27;23.70;68.60
4584;DHT22;2304;47.606;12.186;2022-09-06T18:01:33;23.60;68.60
4584;DHT22;2304;47.606;12.186;2022-09-06T18:06:37;23.60;68.70
4584;DHT22;2304;47.606;12.186;2022-09-06T18:11:40;23.50;68.90
4584;DHT22;2304;47.606;12.186;2022-09-06T18:16:46;23.40;69.20
4584;DHT22;2304;47.606;12.186;2022-09-06T18:21:48;23.30;69.20
4584;DHT22;2304;47.606;12.186;2022-09-06T18:26:51;23.30;69.40
4584;DHT22;2304;47.606;12.186;2022-09-06T18:31:54;23.20;69.60
4584;DHT22;2304;47.606;12.186;2022-09-06T18:36:56;23.10;70.10
4584;DHT22;2304;47.606;12.186;2022-09-06T18:41:58;23.00;71.00
4584;DHT22;2304;47.606;12.186;2022-09-06T18:47:03;22.90;71.50
4584;DHT22;2304;47.606;12.186;2022-09-06T18:52:05;22.80;71.50
4584;DHT22;2304;47.606;12.186;2022-09-06T18:57:07;22.80;71.50
4584;DHT22;2304;47.606;12.186;2022-09-06T19:02:10;22.70;71.90
4584;DHT22;2304;47.606;12.186;2022-09-06T19:07:12;22.70;72.30
4584;DHT22;2304;47.606;12.186;2022-09-06T19:12:14;22.40;71.60
4584;DHT22;2304;47.606;12.186;2022-09-06T19:17:17;22.10;72.40
4584;DHT22;2304;47.606;12.186;2022-09-06T19:22:19;22.00;73.00
4584;DHT22;2304;47.606;12.186;2022-09-06T19:27:22;21.90;67.40
4584;DHT22;2304;47.606;12.186;2022-09-06T19:32:25;21.80;63.90
4584;DHT22;2304;47.606;12.186;2022-09-06T19:37:28;21.70;61.70
4584;DHT22;2304;47.606;12.186;2022-09-06T19:42:30;21.70;61.00
4584;DHT22;2304;47.606;12.186;2022-09-06T19:47:33;21.70;60.70
4584;DHT22;2304;47.606;12.186;2022-09-06T19:52:35;21.70;60.80
4584;DHT22;2304;47.606;12.186;2022-09-06T19:57:37;21.70;60.40
4584;DHT22;2304;47.606;12.186;2022-09-06T20:02:40;21.70;60.90
4584;DHT22;2304;47.606;12.186;2022-09-06T20:07:42;21.60;61.40
4584;DHT22;2304;47.606;12.186;2022-09-06T20:12:44;21.60;62.10
4584;DHT22;2304;47.606;12.186;2022-09-06T20:17:49;21.50;62.10
4584;DHT22;2304;47.606;12.186;2022-09-06T20:22:51;21.50;62.30
4584;DHT22;2304;47.606;12.186;2022-09-06T20:27:54;21.50;62.60
4584;DHT22;2304;47.606;12.186;2022-09-06T20:32:57;21.50;63.00
4584;DHT22;2304;47.606;12.186;2022-09-06T20:37:59;21.30;64.00
4584;DHT22;2304;47.606;12.186;2022-09-06T20:43:01;21.20;65.00
4584;DHT22;2304;47.606;12.186;2022-09-06T20:48:05;21.10;65.50
4584;DHT22;2304;47.606;12.186;2022-09-06T20:53:08;21.00;65.40
4584;DHT22;2304;47.606;12.186;2022-09-06T20:58:09;21.00;65.80
4584;DHT22;2304;47.606;12.186;2022-09-06T21:03:13;21.00;65.30
4584;DHT22;2304;47.606;12.186;2022-09-06T21:08:16;21.00;65.70
4584;DHT22;2304;47.606;12.186;2022-09-06T21:13:18;20.90;66.90
4584;DHT22;2304;47.606;12.186;2022-09-06T21:18:21;20.80;67.90
4584;DHT22;2304;47.606;12.186;2022-09-06T21:23:24;20.70;68.30
4584;DHT22;2304;47.606;12.186;2022-09-06T21:28:27;20.60;68.80
4584;DHT22;2304;47.606;12.186;2022-09-06T21:33:31;20.60;69.20
4584;DHT22;2304;47.606;12.186;2022-09-06T21:38:34;20.40;69.50
4584;DHT22;2304;47.606;12.186;2022-09-06T21:43:36;20.40;70.20
4584;DHT22;2304;47.606;12.186;2022-09-06T21:48:41;20.30;70.90
4584;DHT22;2304;47.606;12.186;2022-09-06T21:53:45;20.30;71.60
4584;DHT22;2304;47.606;12.186;2022-09-06T21:58:49;20.20;72.20
4584;DHT22;2304;47.606;12.186;2022-09-06T22:03:52;20.20;72.90
4584;DHT22;2304;47.606;12.186;2022-09-06T22:08:55;20.00;74.50
4584;DHT22;2304;47.606;12.186;2022-09-06T22:13:58;19.90;75.60
4584;DHT22;2304;47.606;12.186;2022-09-06T22:19:06;19.90;76.20
4584;DHT22;2304;47.606;12.186;2022-09-06T22:24:09;19.70;76.50
4584;DHT22;2304;47.606;12.186;2022-09-06T22:29:11;19.70;77.50
4584;DHT22;2304;47.606;12.186;2022-09-06T22:34:16;19.70;77.20
4584;DHT22;2304;47.606;12.186;2022-09-06T22:39:18;19.70;77.40
4584;DHT22;2304;47.606;12.186;2022-09-06T22:44:20;19.50;78.60
4584;DHT22;2304;47.606;12.186;2022-09-06T22:49:23;19.50;78.90
4584;DHT22;2304;47.606;12.186;2022-09-06T22:54:25;19.50;78.40
4584;DHT22;2304;47.606;12.186;2022-09-06T22:59:27;19.50;77.30
4584;DHT22;2304;47.606;12.186;2022-09-06T23:04:31;19.60;76.60
4584;DHT22;2304;47.606;12.186;2022-09-06T23:09:33;19.50;76.80
4584;DHT22;2304;47.606;12.186;2022-09-06T23:14:34;19.50;77.20
4584;DHT22;2304;47.606;12.186;2022-09-06T23:19:38;19.40;78.10
4584;DHT22;2304;47.606;12.186;2022-09-06T23:24:39;19.40;78.70
4584;DHT22;2304;47.606;12.186;2022-09-06T23:29:42;19.30;79.50
4584;DHT22;2304;47.606;12.186;2022-09-06T23:34:47;19.20;79.50
4584;DHT22;2304;47.606;12.186;2022-09-06T23:39:49;19.10;80.10
4584;DHT22;2304;47.606;12.186;2022-09-06T23:44:51;19.10;80.50
4584;DHT22;2304;47.606;12.186;2022-09-06T23:49:58;19.10;80.80
4584;DHT22;2304;47.606;12.186;2022-09-06T23:55:00;19.00;81.50
